Time;durP1;ratioP1;P1;durP2;ratioP2;P2;SDS_P1;SDS_P2;PMS_P1;PMS_P2;Temp;Humidity;BMP_temperature;BMP_pressure;BME280_temperature;BME280_humidity;BME280_pressure;Samples;Min_cycle;Max_cycle;Signal;HPM_P1;HPM_P2
2023/06/10 00:01:43;;;;;;;7.88;6.65;;;;;;;20.09;100.00;101426.16;5014625;28;20034;-51
2023/06/10 00:04:08;;;;;;;10.43;6.55;;;;;;;20.06;100.00;101415.66;5014086;28;20402;-51
2023/06/10 00:06:35;;;;;;;7.57;6.68;;;;;;;20.02;100.00;101427.50;5013662;28;20042;-53
2023/06/10 00:09:04;;;;;;;6.93;6.18;;;;;;;19.35;100.00;101320.41;5014662;28;20511;-48
2023/06/10 00:11:30;;;;;;;8.23;6.03;;;;;;;20.01;100.00;101430.28;4995046;28;20037;-51
2023/06/10 00:13:55;;;;;;;8.73;6.53;;;;;;;19.86;100.00;101439.22;5014321;28;20034;-49
2023/06/10 00:16:20;;;;;;;9.80;6.60;;;;;;;19.46;100.00;101353.56;4996815;28;20176;-49
2023/06/10 00:18:46;;;;;;;6.90;6.20;;;;;;;19.74;100.00;101400.78;5008190;28;20481;-52
2023/06/10 00:21:13;;;;;;;11.32;6.15;;;;;;;19.88;100.00;101426.63;5014209;28;20038;-51
2023/06/10 00:23:38;;;;;;;9.57;6.63;;;;;;;19.87;100.00;101435.63;4996562;28;20124;-51
2023/06/10 00:26:04;;;;;;;7.20;5.80;;;;;;;19.45;100.00;101369.66;4996538;28;20069;-49
2023/06/10 00:28:30;;;;;;;7.75;6.40;;;;;;;19.38;100.00;101352.28;4996498;28;20478;-48
2023/06/10 00:30:55;;;;;;;7.40;6.57;;;;;;;19.74;100.00;101427.50;5013628;28;20034;-50
2023/06/10 00:33:21;;;;;;;8.80;6.53;;;;;;;19.63;100.00;101430.81;5013643;28;20156;-49
2023/06/10 00:35:46;;;;;;;7.32;5.60;;;;;;;19.24;100.00;101345.06;4995615;28;20038;-49
2023/06/10 00:38:14;;;;;;;9.25;6.45;;;;;;;19.61;100.00;101408.66;5013019;28;20037;-48
2023/06/10 00:40:40;;;;;;;10.38;5.50;;;;;;;19.68;100.00;101427.84;4996515;28;20037;-49
2023/06/10 00:43:06;;;;;;;7.35;5.70;;;;;;;19.22;100.00;101357.66;5013712;28;20030;-50
2023/06/10 00:45:31;;;;;;;6.90;5.55;;;;;;;19.61;100.00;101431.88;5013551;28;20048;-49
2023/06/10 00:47:57;;;;;;;9.23;6.00;;;;;;;19.10;100.00;101350.38;5013514;28;20037;-50
2023/06/10 00:50:22;;;;;;;8.35;6.05;;;;;;;19.57;100.00;101433.00;5013474;28;20030;-51
2023/06/10 00:52:48;;;;;;;8.57;5.93;;;;;;;19.49;100.00;101428.13;5012364;28;20046;-49
2023/06/10 00:55:15;;;;;;;9.60;5.90;;;;;;;19.07;100.00;101369.25;5013633;28;20037;-53
2023/06/10 00:57:40;;;;;;;6.75;5.25;;;;;;;19.48;100.00;101438.88;4995338;28;20034;-50
2023/06/10 01:00:08;;;;;;;7.30;5.88;;;;;;;19.39;100.00;101442.97;5012876;28;20041;-50
2023/06/10 01:02:33;;;;;;;6.97;5.55;;;;;;;19.09;100.00;101394.88;5012163;28;20044;-52
2023/06/10 01:05:01;;;;;;;7.47;5.90;;;;;;;18.86;100.00;101359.81;4995840;28;20397;-49
2023/06/10 01:07:42;;;;;;;6.70;5.63;;;;;;;18.91;100.00;101366.59;5011755;28;20490;-51
2023/06/10 01:10:26;;;;;;;9.05;5.88;;;;;;;19.25;100.00;101436.69;4995838;28;20508;-49
2023/06/10 01:13:08;;;;;;;10.32;5.95;;;;;;;19.21;100.00;101440.47;4995660;28;20026;-51
2023/06/10 01:15:34;;;;;;;5.82;5.00;;;;;;;19.16;100.00;101424.75;4996669;28;20036;-50
2023/06/10 01:18:09;;;;;;;5.95;5.45;;;;;;;19.14;100.00;101436.47;5031767;28;20040;-52
2023/06/10 01:20:36;;;;;;;8.20;5.78;;;;;;;18.67;100.00;101369.84;5015685;28;20115;-50
2023/06/10 01:23:05;;;;;;;6.15;5.47;;;;;;;18.79;100.00;101393.16;5031400;28;20108;-49
2023/06/10 01:25:32;;;;;;;7.57;4.90;;;;;;;19.01;100.00;101438.97;5032738;28;20030;-52
2023/06/10 01:28:24;;;;;;;7.47;5.50;;;;;;;18.62;100.00;101379.94;5032811;28;20109;-51
2023/06/10 01:31:02;;;;;;;6.85;5.60;;;;;;;18.92;100.00;101437.69;5015120;28;20385;-49
2023/06/10 01:33:30;;;;;;;7.43;5.40;;;;;;;18.90;100.00;101439.59;5032326;28;20029;-49
2023/06/10 01:35:59;;;;;;;9.35;5.45;;;;;;;18.53;100.00;101376.81;5014763;28;20481;-50
2023/06/10 01:38:31;;;;;;;6.72;5.45;;;;;;;18.50;100.00;101371.66;5015087;28;20128;-51
2023/06/10 01:40:56;;;;;;;9.23;5.43;;;;;;;17.66;100.00;101227.28;5013937;28;20037;-52
2023/06/10 01:43:22;;;;;;;7.70;5.45;;;;;;;18.43;100.00;101369.41;5032520;28;20030;-51
2023/06/10 01:45:47;;;;;;;6.20;5.25;;;;;;;18.80;100.00;101445.53;5031231;28;20045;-49
2023/06/10 01:48:12;;;;;;;6.28;5.53;;;;;;;18.31;100.00;101364.75;5014769;28;20121;-50
2023/06/10 01:50:38;;;;;;;9.23;5.68;;;;;;;18.70;100.00;101433.69;5032359;28;20041;-51
2023/06/10 01:53:04;;;;;;;6.50;5.75;;;;;;;18.68;100.00;101431.09;5032451;28;20040;-50
2023/06/10 01:55:29;;;;;;;9.43;5.90;;;;;;;18.68;100.00;101446.25;5032200;28;20507;-49
2023/06/10 01:57:55;;;;;;;6.45;4.60;;;;;;;18.23;100.00;101370.53;5013816;28;20033;-53
2023/06/10 02:00:20;;;;;;;7.05;5.22;;;;;;;18.14;100.00;101360.38;5014552;28;20041;-49
2023/06/10 02:02:45;;;;;;;8.35;5.32;;;;;;;18.50;100.00;101416.16;5032234;28;20033;-49
2023/06/10 02:05:11;;;;;;;5.45;4.78;;;;;;;18.18;100.00;101361.94;5032083;28;20488;-50
2023/06/10 02:07:36;;;;;;;6.68;5.35;;;;;;;18.59;100.00;101433.44;5032021;28;20459;-51
2023/06/10 02:10:01;;;;;;;8.32;5.22;;;;;;;18.58;100.00;101437.03;5035161;28;20041;-51
2023/06/10 02:12:27;;;;;;;6.93;5.22;;;;;;;18.07;100.00;101355.50;5036398;28;20045;-50
2023/06/10 02:14:52;;;;;;;5.70;4.63;;;;;;;18.16;100.00;101379.81;5038915;28;20439;-52
2023/06/10 02:17:17;;;;;;;9.20;5.32;;;;;;;18.56;100.00;101453.13;5017369;28;20137;-49
2023/06/10 02:19:43;;;;;;;5.53;4.68;;;;;;;18.56;100.00;101444.28;5018929;28;20113;-49
2023/06/10 02:22:09;;;;;;;7.18;4.35;;;;;;;18.53;100.00;101453.31;5019118;28;20038;-50
2023/06/10 02:24:37;;;;;;;5.88;5.25;;;;;;;18.40;100.00;101430.88;5017737;28;20400;-49
2023/06/10 02:27:06;;;;;;;5.93;4.93;;;;;;;18.13;100.00;101403.09;5018690;28;20042;-53
2023/06/10 02:29:33;;;;;;;7.13;5.43;;;;;;;18.38;100.00;101443.44;5017645;28;20049;-52
2023/06/10 02:31:58;;;;;;;6.45;5.15;;;;;;;17.97;100.00;101387.09;5018757;28;20041;-53
2023/06/10 02:34:23;;;;;;;7.63;5.43;;;;;;;17.90;100.00;101373.25;5018923;28;20033;-52
2023/06/10 02:36:51;;;;;;;7.25;5.40;;;;;;;17.95;100.00;101383.63;5018659;28;20103;-51
2023/06/10 02:39:16;;;;;;;7.95;5.00;;;;;;;18.33;100.00;101461.50;5018798;28;20034;-52
2023/06/10 02:41:41;;;;;;;6.35;5.43;;;;;;;17.94;100.00;101397.91;5018874;28;20037;-51
2023/06/10 02:44:07;;;;;;;6.10;5.50;;;;;;;18.28;100.00;101460.88;5018670;28;20080;-51
2023/06/10 02:46:32;;;;;;;6.65;4.80;;;;;;;18.26;100.00;101454.78;5017307;28;20030;-52
2023/06/10 02:48:57;;;;;;;5.72;5.18;;;;;;;18.21;100.00;101456.84;5018500;28;20445;-53
2023/06/10 02:51:23;;;;;;;5.53;5.00;;;;;;;18.17;100.00;101461.47;5018725;28;20033;-51
2023/06/10 02:53:48;;;;;;;9.07;4.88;;;;;;;18.14;100.00;101450.09;5018399;28;20172;-52
2023/06/10 02:56:16;;;;;;;8.82;5.13;;;;;;;18.10;100.00;101453.88;5018430;28;20485;-49
2023/06/10 02:58:41;;;;;;;7.43;4.95;;;;;;;18.09;100.00;101463.69;5018643;28;20108;-53
2023/06/10 03:01:08;;;;;;;7.35;5.05;;;;;;;18.09;100.00;101449.50;5018534;28;20061;-49
2023/06/10 03:03:33;;;;;;;7.57;5.57;;;;;;;18.08;100.00;101459.28;5017320;28;20559;-51
2023/06/10 03:05:59;;;;;;;6.53;4.95;;;;;;;17.63;100.00;101376.53;5018360;28;20077;-49
2023/06/10 03:08:25;;;;;;;6.47;5.05;;;;;;;18.02;100.00;101454.28;5018249;28;20044;-51
2023/06/10 03:10:50;;;;;;;8.80;5.90;;;;;;;17.98;100.00;101455.38;5017935;28;20092;-53
2023/06/10 03:13:16;;;;;;;8.88;6.30;;;;;;;17.98;100.00;101456.25;5018215;28;20140;-48
2023/06/10 03:15:41;;;;;;;7.45;5.63;;;;;;;18.01;100.00;101457.06;5020512;28;20038;-51
2023/06/10 03:18:07;;;;;;;8.73;6.07;;;;;;;17.99;100.00;101454.44;5038428;28;20523;-52
2023/06/10 03:20:36;;;;;;;9.05;5.90;;;;;;;17.97;100.00;101459.00;5036395;28;20034;-52
2023/06/10 03:23:02;;;;;;;7.93;5.70;;;;;;;17.57;100.00;101401.66;5034165;28;20087;-53
2023/06/10 03:25:28;;;;;;;6.57;4.85;;;;;;;17.53;100.00;101405.41;5034948;28;20477;-51
2023/06/10 03:27:53;;;;;;;6.28;5.03;;;;;;;17.87;100.00;101465.75;5017359;28;20045;-51
2023/06/10 03:30:19;;;;;;;7.97;5.20;;;;;;;17.47;100.00;101399.53;5034712;28;20037;-50
2023/06/10 03:32:44;;;;;;;6.68;4.95;;;;;;;17.85;100.00;101462.31;5035085;28;20042;-50
2023/06/10 03:35:09;;;;;;;5.47;4.65;;;;;;;17.40;100.00;101396.31;5033605;28;20123;-50
2023/06/10 03:37:35;;;;;;;6.78;4.88;;;;;;;17.33;100.00;101387.81;5034708;28;20044;-51
2023/06/10 03:40:00;;;;;;;7.10;4.90;;;;;;;17.33;100.00;101379.81;5016849;28;20042;-54
2023/06/10 03:42:25;;;;;;;8.27;5.40;;;;;;;17.38;100.00;101400.88;5034738;28;20048;-50
2023/06/10 03:44:51;;;;;;;6.55;5.28;;;;;;;17.39;100.00;101413.25;5034633;28;20037;-50
2023/06/10 03:47:16;;;;;;;6.32;4.90;;;;;;;17.80;100.00;101478.56;5034483;28;20041;-50
2023/06/10 03:49:41;;;;;;;6.60;5.00;;;;;;;17.77;100.00;101480.50;5034731;28;20439;-50
2023/06/10 03:52:07;;;;;;;6.07;4.88;;;;;;;17.73;100.00;101481.59;5033590;28;24110;-50
2023/06/10 03:54:34;;;;;;;6.07;4.82;;;;;;;17.73;100.00;101477.13;5034565;28;20033;-53
2023/06/10 03:57:00;;;;;;;7.15;5.05;;;;;;;17.30;100.00;101403.94;5034218;28;20112;-50
2023/06/10 03:59:25;;;;;;;7.82;5.28;;;;;;;17.74;100.00;101483.31;5034199;28;20039;-52
2023/06/10 04:01:51;;;;;;;6.22;5.32;;;;;;;17.72;100.00;101471.88;5034377;28;20029;-51
2023/06/10 04:04:19;;;;;;;7.78;5.57;;;;;;;17.08;100.00;101374.03;5033148;28;20065;-50
2023/06/10 04:06:44;;;;;;;6.47;5.05;;;;;;;17.24;100.00;101398.91;5033900;28;20076;-53
2023/06/10 04:09:10;;;;;;;7.30;5.43;;;;;;;17.10;100.00;101377.47;5032984;28;20053;-52
2023/06/10 04:11:36;;;;;;;7.15;5.75;;;;;;;17.11;100.00;101376.53;5034114;28;20465;-48
2023/06/10 04:14:02;;;;;;;6.28;5.55;;;;;;;17.22;100.00;101398.13;5033880;28;20025;-53
2023/06/10 04:16:27;;;;;;;8.13;5.07;;;;;;;17.34;100.00;101424.09;5025000;28;20060;-53
2023/06/10 04:18:53;;;;;;;6.10;5.05;;;;;;;17.71;100.00;101483.47;5029743;28;20049;-52
2023/06/10 04:21:18;;;;;;;8.57;5.75;;;;;;;17.34;100.00;101418.78;5034012;28;20075;-51
2023/06/10 04:23:43;;;;;;;7.38;5.40;;;;;;;16.23;100.00;101232.09;5032444;28;20034;-53
2023/06/10 04:26:10;;;;;;;6.38;5.70;;;;;;;17.77;100.00;101504.47;5032395;28;20077;-51
2023/06/10 04:28:36;;;;;;;6.63;5.00;;;;;;;17.24;100.00;101398.91;5015938;28;20496;-51
2023/06/10 04:31:03;;;;;;;5.85;5.00;;;;;;;17.36;100.00;101416.06;5034052;28;20037;-51
2023/06/10 04:33:29;;;;;;;7.82;5.43;;;;;;;17.78;100.00;101488.41;5033318;28;20469;-50
2023/06/10 04:35:54;;;;;;;6.90;5.93;;;;;;;17.83;100.00;101490.84;5033915;28;20148;-50
2023/06/10 04:38:20;;;;;;;8.23;5.97;;;;;;;17.87;100.00;101503.03;5033649;28;20038;-49
2023/06/10 04:40:46;;;;;;;7.57;5.57;;;;;;;17.87;100.00;101495.03;5033610;28;20038;-50
2023/06/10 04:43:11;;;;;;;7.13;6.00;;;;;;;17.88;100.00;101499.44;5032186;28;20400;-52
2023/06/10 04:45:36;;;;;;;8.85;6.38;;;;;;;17.43;100.00;101418.31;5033621;28;20036;-49
2023/06/10 04:48:03;;;;;;;8.65;5.35;;;;;;;17.90;100.00;101500.22;5033720;28;20487;-51
2023/06/10 04:50:28;;;;;;;7.18;5.38;;;;;;;17.94;100.00;101504.44;5033561;28;20041;-50
2023/06/10 04:52:56;;;;;;;9.63;5.85;;;;;;;17.94;100.00;101505.31;5033461;28;20039;-49
2023/06/10 04:55:22;;;;;;;8.00;5.68;;;;;;;17.54;100.00;101423.09;5033277;28;20481;-50
2023/06/10 04:57:47;;;;;;;6.80;6.03;;;;;;;18.05;100.00;101510.06;5033097;28;20092;-48
2023/06/10 05:00:14;;;;;;;8.88;6.28;;;;;;;17.34;100.00;101380.66;5031851;28;20125;-51
2023/06/10 05:02:39;;;;;;;8.07;5.60;;;;;;;17.61;100.00;101426.31;5033070;28;20026;-51
2023/06/10 05:05:06;;;;;;;7.80;5.88;;;;;;;18.03;100.00;101484.47;5033251;28;20033;-52
2023/06/10 05:07:31;;;;;;;8.10;5.65;;;;;;;18.18;100.00;101519.16;5032924;28;20065;-49
2023/06/10 05:09:56;;;;;;;9.18;5.60;;;;;;;18.25;100.00;101501.00;5032877;28;20179;-50
2023/06/10 05:12:22;;;;;;;8.60;6.13;;;;;;;18.31;100.00;101504.22;5032929;28;20029;-50
2023/06/10 05:14:47;;;;;;;9.55;5.72;;;;;;;18.36;100.00;101498.63;5031917;28;20457;-49
2023/06/10 05:17:14;;;;;;;9.20;5.63;;;;;;;18.43;100.00;101498.22;5014982;28;20045;-52
2023/06/10 05:19:39;;;;;;;6.88;5.60;;;;;;;18.07;100.00;101430.09;5032852;28;20072;-52
2023/06/10 05:22:05;;;;;;;7.30;5.72;;;;;;;17.81;100.00;101364.88;5015017;28;20035;-51
2023/06/10 05:24:30;;;;;;;7.55;5.93;;;;;;;18.61;100.00;101498.19;5014892;28;20033;-50
2023/06/10 05:26:55;;;;;;;7.13;5.78;;;;;;;18.80;100.00;101517.53;5014775;28;20128;-52
2023/06/10 05:29:20;;;;;;;8.40;5.60;;;;;;;18.57;100.00;101448.63;5015262;28;20057;-49
2023/06/10 05:31:46;;;;;;;8.02;5.25;;;;;;;19.04;100.00;101508.16;5014202;28;20044;-50
2023/06/10 05:34:11;;;;;;;7.53;5.40;;;;;;;19.13;100.00;101513.00;5032826;28;20037;-53
2023/06/10 05:36:37;;;;;;;7.40;5.82;;;;;;;19.21;100.00;101518.75;5014908;28;20030;-50
2023/06/10 05:39:02;;;;;;;9.45;5.93;;;;;;;19.16;100.00;101494.13;5015055;28;20033;-49
2023/06/10 05:41:28;;;;;;;6.70;5.63;;;;;;;19.02;100.00;101462.91;5032506;28;20030;-51
2023/06/10 05:43:53;;;;;;;7.10;5.95;;;;;;;19.50;100.00;101519.75;5014860;28;20032;-50
2023/06/10 05:46:19;;;;;;;6.90;6.00;;;;;;;19.19;100.00;101445.06;5013334;28;20080;-50
2023/06/10 05:48:45;;;;;;;8.77;6.30;;;;;;;19.67;100.00;101520.47;5014859;28;20037;-51
2023/06/10 05:51:10;;;;;;;9.13;6.15;;;;;;;19.79;100.00;101520.72;5032411;28;20029;-51
2023/06/10 05:53:35;;;;;;;9.25;6.13;;;;;;;19.86;100.00;101519.38;5031941;28;20030;-51
2023/06/10 05:56:01;;;;;;;7.50;5.50;;;;;;;19.94;100.00;101533.13;5032395;28;20127;-53
2023/06/10 05:58:26;;;;;;;6.75;5.20;;;;;;;20.06;100.00;101545.75;5032349;28;20124;-49
2023/06/10 06:00:51;;;;;;;6.15;5.50;;;;;;;20.08;100.00;101530.50;5032397;28;20025;-51
2023/06/10 06:03:17;;;;;;;11.23;6.15;;;;;;;20.10;100.00;101525.94;5031185;28;20116;-51
2023/06/10 06:05:42;;;;;;;7.47;5.47;;;;;;;19.81;100.00;101450.22;5032005;28;20064;-49
2023/06/10 06:08:08;;;;;;;7.38;5.53;;;;;;;20.34;100.00;101526.28;5032222;28;20441;-48
2023/06/10 06:10:34;;;;;;;7.80;5.93;;;;;;;20.07;100.00;101470.00;5014573;28;20033;-50
2023/06/10 06:12:59;;;;;;;7.85;6.00;;;;;;;19.90;100.00;101424.75;5030597;28;20037;-52
2023/06/10 06:15:25;;;;;;;11.00;6.63;;;;;;;20.04;100.00;101422.94;5032115;28;20124;-51
2023/06/10 06:17:52;;;;;;;8.57;6.50;;;;;;;20.38;100.00;101464.47;4997967;28;20425;-52
2023/06/10 06:20:18;;;;;;;7.70;5.63;;;;;;;20.45;100.00;101470.28;5013398;28;20087;-51
2023/06/10 06:22:43;;;;;;;9.32;6.57;;;;;;;20.58;100.00;101476.56;5031970;28;20112;-51
2023/06/10 06:25:09;;;;;;;7.32;5.55;;;;;;;20.98;100.00;101537.28;5031930;28;20125;-52
2023/06/10 06:27:34;;;;;;;10.65;5.72;;;;;;;21.08;100.00;101537.56;5032128;28;20252;-52
2023/06/10 06:29:59;;;;;;;6.65;6.05;;;;;;;21.12;100.00;101531.06;5031612;28;20037;-51
2023/06/10 06:32:27;;;;;;;9.75;6.32;;;;;;;20.86;100.00;101468.50;5026233;28;20157;-50
2023/06/10 06:34:54;;;;;;;9.80;5.60;;;;;;;21.39;100.00;101531.94;5046993;28;20044;-50
2023/06/10 06:37:22;;;;;;;9.93;5.78;;;;;;;21.43;100.00;101546.81;5030683;28;20044;-52
2023/06/10 06:39:47;;;;;;;10.57;5.57;;;;;;;21.10;100.00;101477.59;5047010;28;20065;-52
2023/06/10 06:42:13;;;;;;;8.23;5.82;;;;;;;21.66;100.00;101547.97;5029623;28;20527;-53
2023/06/10 06:44:38;;;;;;;8.40;6.43;;;;;;;21.39;100.00;101480.19;5030241;28;20033;-51
2023/06/10 06:47:04;;;;;;;10.07;6.10;;;;;;;21.86;100.00;101542.97;5028842;28;20045;-52
2023/06/10 06:49:29;;;;;;;7.53;6.32;;;;;;;22.02;100.00;101555.34;5037573;28;20420;-53
2023/06/10 06:51:54;;;;;;;5.40;4.90;;;;;;;22.19;100.00;101560.41;5029149;28;20045;-49
2023/06/10 06:54:20;;;;;;;7.25;5.53;;;;;;;22.33;100.00;101563.84;5030252;28;20473;-49
2023/06/10 06:56:45;;;;;;;6.57;5.95;;;;;;;22.50;100.00;101551.09;5030675;28;20034;-50
2023/06/10 06:59:13;;;;;;;7.43;6.22;;;;;;;22.67;100.00;101553.47;5033934;28;20044;-49
2023/06/10 07:01:39;;;;;;;10.20;5.80;;;;;;;22.67;100.00;101551.66;5033040;28;20042;-49
2023/06/10 07:04:04;;;;;;;7.50;5.32;;;;;;;22.72;100.00;101567.41;5031148;28;20056;-51
2023/06/10 07:06:29;;;;;;;9.93;5.43;;;;;;;22.76;100.00;101552.81;5031113;28;20537;-49
2023/06/10 07:08:55;;;;;;;10.20;6.20;;;;;;;22.94;100.00;101557.69;5033439;28;20055;-53
2023/06/10 07:11:20;;;;;;;10.68;6.30;;;;;;;23.08;100.00;101559.38;5033596;28;20373;-51
2023/06/10 07:13:45;;;;;;;9.40;5.75;;;;;;;23.23;100.00;101557.41;5033963;28;20091;-49
2023/06/10 07:16:11;;;;;;;6.40;5.55;;;;;;;23.38;100.00;101556.28;5033051;28;20074;-52
2023/06/10 07:18:36;;;;;;;9.60;5.75;;;;;;;23.48;100.00;101568.06;5044395;28;20048;-48
2023/06/10 07:21:02;;;;;;;11.23;5.95;;;;;;;23.66;100.00;101561.31;5050030;28;20555;-51
2023/06/10 07:23:27;;;;;;;9.07;6.00;;;;;;;23.75;100.00;101565.13;5052871;28;20045;-51
2023/06/10 07:25:52;;;;;;;11.20;6.10;;;;;;;23.72;100.00;101570.75;5046800;28;20128;-51
2023/06/10 07:28:18;;;;;;;11.82;5.57;;;;;;;23.17;100.00;101439.69;5054019;28;20075;-55
2023/06/10 07:30:43;;;;;;;8.05;6.00;;;;;;;24.08;100.00;101571.47;5034290;28;20464;-50
2023/06/10 07:33:10;;;;;;;6.55;5.53;;;;;;;24.22;100.00;101573.13;5052473;28;20075;-50
2023/06/10 07:35:35;;;;;;;6.20;5.50;;;;;;;24.27;100.00;101581.69;5048290;28;20042;-51
2023/06/10 07:38:01;;;;;;;6.72;6.00;;;;;;;23.85;100.00;101451.38;5041300;28;20373;-52
2023/06/10 07:40:26;;;;;;;8.13;5.60;;;;;;;24.45;100.00;101506.75;5042733;28;20037;-49
2023/06/10 07:42:52;;;;;;;7.85;5.10;;;;;;;25.07;100.00;101577.09;5053451;28;20029;-52
2023/06/10 07:45:18;;;;;;;7.38;5.53;;;;;;;25.06;100.00;101508.03;5035743;28;20396;-54
2023/06/10 07:47:43;;;;;;;7.32;5.50;;;;;;;25.30;100.00;101507.84;5036741;28;20033;-53
2023/06/10 07:50:09;;;;;;;8.88;5.18;;;;;;;26.00;100.00;101572.88;5035009;28;20064;-52
2023/06/10 07:52:34;;;;;;;6.70;5.40;;;;;;;25.83;100.00;101573.47;5053219;28;20033;-53
2023/06/10 07:55:00;;;;;;;9.40;5.97;;;;;;;26.12;100.00;101534.91;5033371;28;20034;-51
2023/06/10 07:57:25;;;;;;;8.13;5.50;;;;;;;26.96;100.00;101571.63;5033938;28;20037;-54
2023/06/10 07:59:51;;;;;;;8.73;6.18;;;;;;;27.16;100.00;101586.88;5042362;28;20032;-54
2023/06/10 08:02:16;;;;;;;9.25;6.38;;;;;;;27.16;100.00;101569.81;5053398;28;20033;-55
2023/06/10 08:04:41;;;;;;;6.40;5.65;;;;;;;27.66;100.00;101582.31;5054104;28;20511;-54
2023/06/10 08:07:07;;;;;;;10.35;6.07;;;;;;;27.45;100.00;101581.56;5051018;28;20396;-54
2023/06/10 08:09:32;;;;;;;6.05;5.45;;;;;;;27.15;100.00;101525.72;5050291;28;20036;-52
2023/06/10 08:11:57;;;;;;;6.88;6.20;;;;;;;27.71;100.00;101568.34;5019664;28;20041;-51
2023/06/10 08:14:23;;;;;;;10.98;5.85;;;;;;;27.87;100.00;101536.16;5008634;28;20037;-52
2023/06/10 08:16:48;;;;;;;9.63;6.05;;;;;;;28.30;100.00;101584.41;5053899;28;20071;-53
2023/06/10 08:19:13;;;;;;;8.60;5.90;;;;;;;27.78;100.00;101592.00;5051734;28;20072;-50
2023/06/10 08:21:39;;;;;;;8.02;6.30;;;;;;;27.56;100.00;101589.53;5053893;28;20048;-51
2023/06/10 08:24:09;;;;;;;9.60;6.13;;;;;;;27.62;100.00;101574.59;5048377;28;20075;-53
2023/06/10 08:26:34;;;;;;;8.55;5.68;;;;;;;28.03;100.00;101582.41;5036474;28;20041;-55
2023/06/10 08:28:59;;;;;;;6.95;5.82;;;;;;;27.34;100.00;101431.13;5034779;28;20036;-53
2023/06/10 08:31:25;;;;;;;10.00;6.85;;;;;;;28.37;100.00;101591.78;5064881;28;20029;-54
2023/06/10 08:33:50;;;;;;;8.85;6.03;;;;;;;28.18;100.00;101526.88;5051639;28;20025;-53
2023/06/10 08:36:15;;;;;;;10.90;6.28;;;;;;;28.29;100.00;101540.22;5053452;28;20029;-55
2023/06/10 08:38:41;;;;;;;8.55;5.50;;;;;;;28.28;100.00;101521.44;5053307;28;20037;-51
2023/06/10 08:41:09;;;;;;;7.32;5.88;;;;;;;28.54;100.00;101584.78;5050938;28;20041;-55
2023/06/10 08:43:41;;;;;;;6.32;5.68;;;;;;;28.76;100.00;101541.06;5046881;28;20043;-51
2023/06/10 08:46:09;;;;;;;6.63;5.55;;;;;;;29.15;100.00;101586.94;5048117;28;20043;-54
2023/06/10 08:48:35;;;;;;;8.43;6.07;;;;;;;29.12;100.00;101589.97;5035538;28;20108;-51
2023/06/10 08:51:04;;;;;;;7.93;6.22;;;;;;;28.95;100.00;101589.78;5053252;28;20033;-53
2023/06/10 08:53:31;;;;;;;10.55;5.82;;;;;;;28.38;100.00;101509.56;5053498;28;20500;-52
2023/06/10 08:55:58;;;;;;;7.65;5.88;;;;;;;28.79;100.00;101534.50;5050401;28;20121;-52
2023/06/10 08:58:24;;;;;;;8.18;6.53;;;;;;;29.05;100.00;101549.06;5034914;28;20037;-52
2023/06/10 09:00:50;;;;;;;7.20;5.85;;;;;;;29.35;100.00;101589.44;5015179;28;20061;-53
2023/06/10 09:03:16;;;;;;;10.55;6.28;;;;;;;29.35;100.00;101594.84;5039179;28;20495;-52
2023/06/10 09:05:41;;;;;;;7.07;5.65;;;;;;;28.99;100.00;101492.72;5050778;28;20044;-53
2023/06/10 09:08:08;;;;;;;7.97;5.60;;;;;;;29.29;100.00;101534.94;5053161;28;20066;-53
2023/06/10 09:10:33;;;;;;;6.15;5.55;;;;;;;29.53;100.00;101567.75;5035168;28;20053;-52
2023/06/10 09:12:59;;;;;;;8.23;5.70;;;;;;;29.96;100.00;101559.69;5033320;28;20053;-51
2023/06/10 09:15:24;;;;;;;7.88;6.47;;;;;;;30.16;100.00;101582.06;5039463;28;20033;-53
2023/06/10 09:17:51;;;;;;;15.68;11.23;;;;;;;30.77;100.00;101595.56;5034373;28;20057;-56
2023/06/10 09:20:16;;;;;;;6.05;5.45;;;;;;;30.39;100.00;101571.56;5017571;28;20036;-51
2023/06/10 09:22:42;;;;;;;7.95;6.07;;;;;;;30.32;100.00;101584.06;5050896;28;20052;-54
2023/06/10 09:25:09;;;;;;;10.70;6.13;;;;;;;30.24;100.00;101516.94;5052658;28;20033;-54
2023/06/10 09:27:49;;;;;;;9.40;5.50;;;;;;;30.52;100.00;101542.09;5052062;28;20028;-56
2023/06/10 09:30:29;;;;;;;5.82;5.22;;;;;;;31.26;100.00;101571.31;5052578;28;20060;-53
2023/06/10 09:32:56;;;;;;;8.43;5.18;;;;;;;31.52;100.00;101589.28;5024103;28;20026;-55
2023/06/10 09:35:25;;;;;;;7.22;5.68;;;;;;;31.68;100.00;101536.72;5012567;28;20473;-54
2023/06/10 09:37:56;;;;;;;10.32;5.18;;;;;;;32.11;100.00;101600.88;4994973;28;20477;-54
2023/06/10 09:40:22;;;;;;;7.55;5.47;;;;;;;31.88;100.00;101545.38;4994440;28;20037;-54
2023/06/10 09:42:54;;;;;;;6.45;5.80;;;;;;;32.06;100.00;101544.22;5026621;28;20033;-56
2023/06/10 09:45:20;;;;;;;6.00;5.10;;;;;;;32.76;100.00;101605.25;5050393;28;20063;-53
2023/06/10 09:47:46;;;;;;;7.47;5.63;;;;;;;33.14;100.00;101594.56;5050195;28;20040;-54
2023/06/10 09:50:12;;;;;;;11.60;10.43;;;;;;;32.67;100.00;101537.28;5048103;28;20392;-54
2023/06/10 09:52:37;;;;;;;7.90;5.15;;;;;;;32.52;100.00;101542.59;5037506;28;20041;-52
2023/06/10 09:55:03;;;;;;;8.82;5.68;;;;;;;32.68;100.00;101599.81;5033984;28;20036;-54
2023/06/10 09:57:39;;;;;;;5.78;5.18;;;;;;;32.38;100.00;101589.63;5049947;28;20036;-54
2023/06/10 10:00:09;;;;;;;7.20;5.47;;;;;;;32.29;100.00;101544.34;5052217;28;20377;-54
2023/06/10 10:02:51;;;;;;;6.47;5.47;;;;;;;32.89;100.00;101596.53;5032564;28;20124;-56
2023/06/10 10:05:18;;;;;;;5.90;5.40;;;;;;;32.78;100.00;101535.03;5052039;28;20503;-55
2023/06/10 10:07:44;;;;;;;8.13;5.35;;;;;;;32.28;100.00;101534.50;5034309;28;20029;-55
2023/06/10 10:10:10;;;;;;;7.82;5.13;;;;;;;32.94;100.00;101583.19;5012020;28;20026;-55
2023/06/10 10:12:39;;;;;;;9.55;5.93;;;;;;;33.27;100.00;101590.25;5023758;28;20041;-52
2023/06/10 10:15:09;;;;;;;9.63;5.80;;;;;;;33.22;100.00;101594.50;5033761;28;20424;-55
2023/06/10 10:17:40;;;;;;;11.52;5.68;;;;;;;32.79;100.00;101579.50;5051565;28;20029;-55
2023/06/10 10:20:07;;;;;;;12.70;6.10;;;;;;;32.97;100.00;101532.91;5047699;28;20283;-57
2023/06/10 10:22:39;;;;;;;7.00;5.18;;;;;;;32.29;100.00;101468.91;5009488;28;20592;-52
2023/06/10 10:25:10;;;;;;;9.35;6.28;;;;;;;32.56;100.00;101504.97;5012133;28;20478;-52
2023/06/10 10:27:38;;;;;;;8.57;5.38;;;;;;;32.97;100.00;101558.28;5025126;28;20473;-55
2023/06/10 10:30:08;;;;;;;6.95;5.03;;;;;;;32.88;100.00;101581.16;5014315;28;20033;-54
2023/06/10 10:32:52;;;;;;;5.85;5.15;;;;;;;33.10;100.00;101538.66;5034392;28;20437;-53
2023/06/10 10:35:21;;;;;;;7.75;6.35;;;;;;;32.65;100.00;101564.72;5035541;28;20037;-50
2023/06/10 10:37:46;;;;;;;6.65;5.57;;;;;;;32.32;100.00;101565.81;5027389;28;20043;-52
2023/06/10 10:40:12;;;;;;;6.78;6.07;;;;;;;32.70;100.00;101565.06;5033116;28;20125;-54
2023/06/10 10:42:38;;;;;;;9.00;6.50;;;;;;;32.68;100.00;101518.03;5035662;28;20477;-54
2023/06/10 10:45:04;;;;;;;8.43;5.55;;;;;;;32.94;100.00;101538.69;5017138;28;20033;-55
2023/06/10 10:47:30;;;;;;;7.40;5.03;;;;;;;33.16;100.00;101567.97;5033375;28;20041;-52
2023/06/10 10:49:59;;;;;;;13.60;5.57;;;;;;;33.11;99.97;101556.72;5035845;28;20366;-53
2023/06/10 10:52:25;;;;;;;10.73;5.65;;;;;;;33.19;100.00;101554.78;5013401;28;20029;-54
2023/06/10 10:54:53;;;;;;;11.00;6.45;;;;;;;32.83;96.71;101513.53;5050425;28;20065;-54
2023/06/10 10:57:20;;;;;;;7.43;4.93;;;;;;;33.19;98.07;101505.69;5040331;28;20025;-51
2023/06/10 10:59:48;;;;;;;7.93;5.82;;;;;;;33.55;95.95;101563.25;5055349;28;20120;-51
2023/06/10 11:02:18;;;;;;;6.40;5.60;;;;;;;33.11;100.00;101470.28;5055298;28;20150;-53
2023/06/10 11:04:46;;;;;;;7.80;5.40;;;;;;;33.58;100.00;101508.34;5055546;28;20028;-52
2023/06/10 11:07:15;;;;;;;9.68;5.35;;;;;;;33.45;98.09;101518.16;5053693;28;20032;-54
2023/06/10 11:09:57;;;;;;;8.48;5.57;;;;;;;33.88;95.98;101522.94;5018647;28;20060;-52
2023/06/10 11:12:24;;;;;;;9.00;5.55;;;;;;;33.37;95.75;101492.59;4997901;28;20481;-50
2023/06/10 11:14:55;;;;;;;8.25;5.45;;;;;;;34.00;100.00;101502.34;5012644;28;20037;-54